Alden, Iowa
Current Conditions -  °F | °C
As of 9:35 PM on Monday 22 Dec 2014 (Local Time) from KIFA Reporting Station
Light Rain Light Rain  
Wind Chill: 26°   Ceiling: 200
Heat Index: 34°   Visibility: 4mi
Dew Point: 33°   Wind: 10mph
Humidity: 97%   Direction: 80°E
Pressure: 29.49"   Gusts: NA
Location:  42.52°N, 93.38°W
Report Text: KIFA 230335Z AUTO 08009KT 4SM -RA OVC002 01/01 A2949 RMK AO2 P0003 T00120007
Loading
Personal Weather Stations






























Interactive Weather Map New forecast layout! Learn more

10-Day Weather Forecast

Advertisements
Track Severe Weather on mobile